createdAt,value
2019-01-26T00:00:47.024Z,6.43
2019-01-26T00:03:49.131Z,6.32
2019-01-26T00:06:51.157Z,6.44
2019-01-26T00:09:55.544Z,6.53
2019-01-26T00:12:57.540Z,6.43
2019-01-26T00:16:02.563Z,6.47
2019-01-26T00:19:04.605Z,6.59
2019-01-26T00:22:06.719Z,6.58
2019-01-26T00:25:11.791Z,6.44
2019-01-26T00:28:17.151Z,6.56
2019-01-26T00:31:22.237Z,6.62
2019-01-26T00:34:24.948Z,6.66
2019-01-26T00:37:28.700Z,6.60
2019-01-26T00:40:32.531Z,6.58
2019-01-26T00:43:36.582Z,6.56
2019-01-26T00:46:38.532Z,6.51
2019-01-26T00:49:43.082Z,6.54
2019-01-26T00:52:49.657Z,6.53
2019-01-26T00:55:54.646Z,6.56
2019-01-26T00:58:56.758Z,6.57
2019-01-26T01:01:58.862Z,6.58
2019-01-26T01:05:03.966Z,6.56
2019-01-26T01:08:06.064Z,6.50
2019-01-26T01:11:08.093Z,6.43
2019-01-26T01:14:13.234Z,6.59
2019-01-26T01:17:15.241Z,6.56
2019-01-26T01:20:19.763Z,6.54
2019-01-26T01:23:23.720Z,6.47
2019-01-26T01:26:25.720Z,6.47
2019-01-26T01:29:27.761Z,6.36
2019-01-26T01:32:32.571Z,6.45
2019-01-26T01:35:39.802Z,6.58
2019-01-26T01:38:41.712Z,6.61
2019-01-26T01:41:43.808Z,6.58
2019-01-26T01:44:46.054Z,6.58
2019-01-26T01:47:48.178Z,6.51
2019-01-26T01:50:53.232Z,6.61
2019-01-26T01:53:55.520Z,6.65
2019-01-26T01:56:59.988Z,6.74
2019-01-26T02:00:02.309Z,6.68
2019-01-26T02:03:04.607Z,6.67
2019-01-26T02:06:06.622Z,6.61
2019-01-26T02:09:08.646Z,6.48
2019-01-26T02:12:10.683Z,6.52
2019-01-26T02:15:13.080Z,6.46
2019-01-26T02:18:15.073Z,6.46
2019-01-26T02:21:17.090Z,6.43
2019-01-26T02:24:22.112Z,6.41
2019-01-26T02:27:28.648Z,6.46
2019-01-26T02:30:30.716Z,6.51
2019-01-26T02:33:33.090Z,6.45
2019-01-26T02:36:35.151Z,6.50
2019-01-26T02:39:38.886Z,6.50
2019-01-26T02:42:40.919Z,6.45
2019-01-26T02:45:43.352Z,6.54
2019-01-26T02:48:45.412Z,6.51
2019-01-26T02:51:47.410Z,6.60
2019-01-26T02:54:52.336Z,6.66
2019-01-26T02:57:54.430Z,6.67
2019-01-26T03:01:03.906Z,6.68
2019-01-26T03:04:06.415Z,6.65
2019-01-26T03:07:08.434Z,6.65
2019-01-26T03:10:12.528Z,6.64
2019-01-26T03:13:16.453Z,6.73
2019-01-26T03:16:18.948Z,6.67
2019-01-26T03:19:21.201Z,6.59
2019-01-26T03:22:23.245Z,6.60
2019-01-26T03:25:25.702Z,6.68
2019-01-26T03:28:27.738Z,6.73
2019-01-26T03:31:30.164Z,6.77
2019-01-26T03:34:36.251Z,6.67
2019-01-26T03:37:42.319Z,6.65
2019-01-26T03:40:44.498Z,6.51
2019-01-26T03:43:47.761Z,6.52
2019-01-26T03:46:49.787Z,6.50
2019-01-26T03:49:53.615Z,6.53
2019-01-26T03:52:55.728Z,6.53
2019-01-26T03:55:57.943Z,6.56
2019-01-26T03:59:02.733Z,6.58
2019-01-26T04:02:04.750Z,6.47
2019-01-26T04:05:08.784Z,6.49
2019-01-26T04:08:10.811Z,6.51
2019-01-26T04:11:14.054Z,6.54
2019-01-26T04:14:16.202Z,6.53
2019-01-26T04:17:21.936Z,6.54
2019-01-26T04:20:24.184Z,6.58
2019-01-26T04:23:26.705Z,6.65
2019-01-26T04:26:28.718Z,6.55
2019-01-26T04:29:30.789Z,6.50
2019-01-26T04:32:32.793Z,6.49
2019-01-26T04:35:35.347Z,6.54
2019-01-26T04:38:37.360Z,6.57
2019-01-26T04:41:40.770Z,6.53
2019-01-26T04:44:43.166Z,6.54
2019-01-26T04:47:45.194Z,6.51
2019-01-26T04:50:47.209Z,6.53
2019-01-26T04:53:49.675Z,6.52
2019-01-26T04:56:52.011Z,6.59
2019-01-26T04:59:54.053Z,6.58
2019-01-26T05:02:56.040Z,6.63
2019-01-26T05:05:59.363Z,6.64
2019-01-26T05:09:01.372Z,6.60
2019-01-26T05:12:03.425Z,6.66
2019-01-26T05:15:06.384Z,6.68
2019-01-26T05:18:08.406Z,6.69
2019-01-26T05:21:15.440Z,6.73
2019-01-26T05:24:17.556Z,6.75
2019-01-26T05:27:21.823Z,6.69
2019-01-26T05:30:27.331Z,6.77
2019-01-26T05:33:29.767Z,6.76
2019-01-26T05:36:31.796Z,6.85
2019-01-26T05:39:36.006Z,6.83
2019-01-26T05:42:38.054Z,6.79
2019-01-26T05:45:40.363Z,6.85
2019-01-26T05:48:42.395Z,6.81
2019-01-26T05:51:44.404Z,6.89
2019-01-26T05:54:46.623Z,6.92
2019-01-26T05:57:48.617Z,6.97
2019-01-26T06:00:50.670Z,6.93
2019-01-26T06:03:52.796Z,6.76
2019-01-26T06:06:54.821Z,6.87
2019-01-26T06:09:56.816Z,6.78
2019-01-26T06:12:59.096Z,6.85
2019-01-26T06:16:01.216Z,6.89
2019-01-26T06:19:04.776Z,6.97
2019-01-26T06:22:06.879Z,6.97
2019-01-26T06:25:10.503Z,7.00
2019-01-26T06:28:13.865Z,6.98
2019-01-26T06:31:16.005Z,6.92
2019-01-26T06:34:21.029Z,6.98
2019-01-26T06:37:23.044Z,7.01
2019-01-26T06:40:25.103Z,7.05
2019-01-26T06:43:27.137Z,7.01
2019-01-26T06:46:30.257Z,7.10
2019-01-26T06:49:34.027Z,7.07
2019-01-26T06:52:38.684Z,7.13
2019-01-26T06:55:40.839Z,7.12
2019-01-26T06:58:42.897Z,7.16
2019-01-26T07:01:46.121Z,7.11
2019-01-26T07:04:53.651Z,7.11
2019-01-26T07:07:55.676Z,7.19
2019-01-26T07:10:57.730Z,7.27
2019-01-26T07:14:01.665Z,7.17
2019-01-26T07:17:03.723Z,7.13
2019-01-26T07:20:07.476Z,7.18
2019-01-26T07:23:09.867Z,7.18
2019-01-26T07:26:11.870Z,7.23
2019-01-26T07:29:15.768Z,7.15
2019-01-26T07:32:18.982Z,7.13
2019-01-26T07:35:21.266Z,7.08
2019-01-26T07:38:23.303Z,7.06
2019-01-26T07:41:25.307Z,7.10
2019-01-26T07:44:27.536Z,7.12
2019-01-26T07:47:29.568Z,7.14
2019-01-26T07:50:31.618Z,7.16
2019-01-26T07:53:33.720Z,7.10
2019-01-26T07:56:38.300Z,7.04
2019-01-26T07:59:40.307Z,6.90
2019-01-26T08:02:42.344Z,7.03
2019-01-26T08:05:44.554Z,7.01
2019-01-26T08:08:48.183Z,6.95
2019-01-26T08:11:52.102Z,6.98
2019-01-26T08:14:58.530Z,6.99
2019-01-26T08:18:00.553Z,7.02
2019-01-26T08:21:02.602Z,7.12
2019-01-26T08:24:04.646Z,7.05
2019-01-26T08:27:06.664Z,7.01
2019-01-26T08:30:19.898Z,7.17
2019-01-26T08:33:24.457Z,7.13
2019-01-26T08:36:26.737Z,7.09
2019-01-26T08:39:29.245Z,7.17
2019-01-26T08:42:33.821Z,7.13
2019-01-26T08:45:37.607Z,7.12
2019-01-26T08:48:41.655Z,7.19
2019-01-26T08:51:43.828Z,7.21
2019-01-26T08:54:46.255Z,7.20
2019-01-26T08:57:48.284Z,7.17
2019-01-26T09:00:50.302Z,7.18
2019-01-26T09:04:15.181Z,7.18
2019-01-26T09:07:17.232Z,7.20
2019-01-26T09:10:22.671Z,7.33
2019-01-26T09:13:24.993Z,7.11
2019-01-26T09:16:27.010Z,7.26
2019-01-26T09:19:29.044Z,7.33
2019-01-26T09:22:33.837Z,7.25
2019-01-26T09:25:36.040Z,7.30
2019-01-26T09:28:39.291Z,7.50
2019-01-26T09:31:43.113Z,7.51
2019-01-26T09:34:48.132Z,7.46
2019-01-26T09:37:50.209Z,7.59
2019-01-26T09:40:52.263Z,7.49
2019-01-26T09:43:55.548Z,7.32
2019-01-26T09:46:57.537Z,7.47
2019-01-26T09:49:59.494Z,7.40
2019-01-26T09:53:05.514Z,7.39
2019-01-26T09:56:07.529Z,7.45
2019-01-26T09:59:10.703Z,7.32
2019-01-26T10:02:12.760Z,7.39
2019-01-26T10:05:15.206Z,7.35
2019-01-26T10:08:20.502Z,7.27
2019-01-26T10:11:22.637Z,7.35
2019-01-26T10:14:26.715Z,7.38
2019-01-26T10:17:32.678Z,7.35
2019-01-26T10:20:35.797Z,7.34
2019-01-26T10:23:38.126Z,7.29
2019-01-26T10:26:41.444Z,7.37
2019-01-26T10:29:44.572Z,7.42
2019-01-26T10:32:46.682Z,7.56
2019-01-26T10:36:17.504Z,7.57
2019-01-26T10:39:20.987Z,7.76
2019-01-26T10:42:30.195Z,7.88
2019-01-26T10:45:34.908Z,7.88
2019-01-26T10:48:37.413Z,7.89
2019-01-26T10:51:39.613Z,7.83
2019-01-26T10:54:41.780Z,7.75
2019-01-26T10:57:43.945Z,7.73
2019-01-26T11:00:45.949Z,7.76
2019-01-26T11:03:48.511Z,7.78
2019-01-26T11:06:50.650Z,7.70
2019-01-26T11:09:53.134Z,7.83
2019-01-26T11:12:57.039Z,7.69
2019-01-26T11:15:59.639Z,7.72
2019-01-26T11:19:07.711Z,7.67
2019-01-26T11:22:10.107Z,7.70
2019-01-26T11:25:17.987Z,7.61
2019-01-26T11:28:21.703Z,7.52
2019-01-26T11:31:23.853Z,7.63
2019-01-26T11:34:27.001Z,7.55
2019-01-26T11:37:31.514Z,7.71
2019-01-26T11:40:35.338Z,7.70
2019-01-26T11:43:39.652Z,7.75
2019-01-26T11:46:54.112Z,7.72
2019-01-26T11:49:58.008Z,7.66
2019-01-26T11:53:00.086Z,7.70
2019-01-26T11:56:07.663Z,7.70
2019-01-26T11:59:09.779Z,7.71
2019-01-26T12:02:36.646Z,7.66
2019-01-26T12:05:52.280Z,7.72
2019-01-26T12:08:54.363Z,7.60
2019-01-26T12:11:56.467Z,7.61
2019-01-26T12:14:58.619Z,7.85
2019-01-26T12:18:00.999Z,8.14
2019-01-26T12:21:03.400Z,7.98
2019-01-26T12:24:08.567Z,8.04
2019-01-26T12:27:10.575Z,8.25
2019-01-26T12:30:12.751Z,8.29
2019-01-26T12:33:14.912Z,8.18
2019-01-26T12:36:19.634Z,8.17
2019-01-26T12:39:24.136Z,8.09
2019-01-26T12:42:26.155Z,8.00
2019-01-26T12:45:28.349Z,7.89
2019-01-26T12:48:30.611Z,7.93
2019-01-26T12:51:35.693Z,7.95
2019-01-26T12:54:40.980Z,7.93
2019-01-26T12:57:42.943Z,7.87
2019-01-26T13:00:45.013Z,7.78
2019-01-26T13:03:47.411Z,7.88
2019-01-26T13:06:49.477Z,7.78
2019-01-26T13:09:54.398Z,7.88
2019-01-26T13:12:59.520Z,7.91
2019-01-26T13:16:01.757Z,7.85
2019-01-26T13:19:03.816Z,7.67
2019-01-26T13:22:05.945Z,7.76
2019-01-26T13:25:09.541Z,7.74
2019-01-26T13:28:12.694Z,7.83
2019-01-26T13:31:15.108Z,7.75
2019-01-26T13:34:17.490Z,7.70
2019-01-26T13:37:19.511Z,7.79
2019-01-26T13:40:24.546Z,7.88
2019-01-26T13:43:29.577Z,7.88
2019-01-26T13:46:34.617Z,7.76
2019-01-26T13:49:36.763Z,7.77
2019-01-26T13:52:38.825Z,7.74
2019-01-26T13:55:41.035Z,7.74
2019-01-26T13:58:43.639Z,7.77
2019-01-26T14:01:45.654Z,7.73
2019-01-26T14:04:48.839Z,7.72
2019-01-26T14:07:51.044Z,7.62
2019-01-26T14:10:53.977Z,7.79
2019-01-26T14:13:56.636Z,7.80
2019-01-26T14:16:58.697Z,7.63
2019-01-26T14:20:00.739Z,7.50
2019-01-26T14:23:04.507Z,7.55
2019-01-26T14:26:06.752Z,7.73
2019-01-26T14:29:08.780Z,7.62
2019-01-26T14:32:10.795Z,7.53
2019-01-26T14:35:12.919Z,7.60
2019-01-26T14:38:16.751Z,7.65
2019-01-26T14:41:18.873Z,7.82
2019-01-26T14:44:20.895Z,7.66
2019-01-26T14:47:24.283Z,7.58
2019-01-26T14:50:27.499Z,7.65
2019-01-26T14:53:30.393Z,7.69
2019-01-26T14:56:32.616Z,7.59
2019-01-26T14:59:39.284Z,7.64
2019-01-26T15:02:41.619Z,7.66
2019-01-26T15:05:44.235Z,7.58
2019-01-26T15:08:46.306Z,7.69
2019-01-26T15:11:50.681Z,7.77
2019-01-26T15:14:53.104Z,7.57
2019-01-26T15:17:59.811Z,7.55
2019-01-26T15:21:02.702Z,7.55
2019-01-26T15:24:04.918Z,7.43
2019-01-26T15:27:09.666Z,7.42
2019-01-26T15:30:15.366Z,7.47
2019-01-26T15:33:17.587Z,7.68
2019-01-26T15:36:20.966Z,7.50
2019-01-26T15:39:23.096Z,7.43
2019-01-26T15:42:25.360Z,7.29
2019-01-26T15:45:29.978Z,7.38
2019-01-26T15:48:32.738Z,7.40
2019-01-26T15:51:39.827Z,7.39
2019-01-26T15:54:45.232Z,7.39
2019-01-26T15:57:47.411Z,7.46
2019-01-26T16:00:53.704Z,7.30
2019-01-26T16:03:55.871Z,7.16
2019-01-26T16:06:58.023Z,7.20
2019-01-26T16:10:00.106Z,7.26
2019-01-26T16:13:02.373Z,7.21
2019-01-26T16:16:08.137Z,7.34
2019-01-26T16:19:10.440Z,7.28
2019-01-26T16:22:12.587Z,7.12
2019-01-26T16:25:15.867Z,7.17
2019-01-26T16:28:17.917Z,7.05
2019-01-26T16:31:20.063Z,7.13
2019-01-26T16:34:23.172Z,7.06
2019-01-26T16:37:25.281Z,7.07
2019-01-26T16:40:29.878Z,7.03
2019-01-26T16:43:32.316Z,7.00
2019-01-26T16:46:34.412Z,7.07
2019-01-26T16:49:36.453Z,7.19
2019-01-26T16:52:41.027Z,7.07
2019-01-26T16:55:44.526Z,7.16
2019-01-26T16:58:49.697Z,7.21
2019-01-26T17:01:51.725Z,7.11
2019-01-26T17:04:53.983Z,7.09
2019-01-26T17:07:58.055Z,7.29
2019-01-26T17:11:00.177Z,7.22
2019-01-26T17:14:02.405Z,7.19
2019-01-26T17:17:04.733Z,7.06
2019-01-26T17:20:20.147Z,7.16
2019-01-26T17:23:24.720Z,7.17
2019-01-26T17:26:27.283Z,7.18
2019-01-26T17:29:30.523Z,7.14
2019-01-26T17:32:37.119Z,7.10
2019-01-26T17:35:40.312Z,7.07
2019-01-26T17:38:44.820Z,6.95
2019-01-26T17:41:47.388Z,7.01
2019-01-26T17:44:49.570Z,7.21
2019-01-26T17:47:52.950Z,7.27
2019-01-26T17:50:55.008Z,7.47
2019-01-26T17:53:59.874Z,7.31
2019-01-26T17:57:01.901Z,7.38
2019-01-26T18:00:12.261Z,7.24
2019-01-26T18:03:15.642Z,7.22
2019-01-26T18:06:20.073Z,7.21
2019-01-26T18:09:23.669Z,7.29
2019-01-26T18:12:25.678Z,7.28
2019-01-26T18:15:32.014Z,7.31
2019-01-26T18:18:34.154Z,7.23
2019-01-26T18:21:36.461Z,7.53
2019-01-26T18:24:41.004Z,7.37
2019-01-26T18:27:44.836Z,7.38
2019-01-26T18:30:49.311Z,7.34
2019-01-26T18:33:56.702Z,7.30
2019-01-26T18:37:00.702Z,7.20
2019-01-26T18:40:04.022Z,7.10
2019-01-26T18:43:06.072Z,7.26
2019-01-26T18:46:10.256Z,7.24
2019-01-26T18:49:14.227Z,7.11
2019-01-26T18:52:16.308Z,7.07
2019-01-26T18:55:18.691Z,7.11
2019-01-26T18:58:37.793Z,7.01
2019-01-26T19:01:42.228Z,6.93
2019-01-26T19:04:49.472Z,7.12
2019-01-26T19:07:54.570Z,7.15
2019-01-26T19:11:01.339Z,7.15
2019-01-26T19:14:14.450Z,7.14
2019-01-26T19:17:19.802Z,7.10
2019-01-26T19:20:29.805Z,7.26
2019-01-26T19:23:36.450Z,7.34
2019-01-26T19:26:43.027Z,7.48
2019-01-26T19:29:46.483Z,7.55
2019-01-26T19:32:51.155Z,7.59
2019-01-26T19:35:53.432Z,7.56
2019-01-26T19:38:58.224Z,7.38
2019-01-26T19:42:00.611Z,7.46
2019-01-26T19:45:03.709Z,7.55
2019-01-26T19:48:07.154Z,7.50
2019-01-26T19:51:12.422Z,7.67
2019-01-26T19:54:23.305Z,7.61
2019-01-26T19:57:29.348Z,7.61
2019-01-26T20:00:33.701Z,7.80
2019-01-26T20:03:36.539Z,7.72
2019-01-26T20:06:42.817Z,7.70
2019-01-26T20:09:44.947Z,7.74
2019-01-26T20:12:53.452Z,7.84
2019-01-26T20:15:58.135Z,7.73
2019-01-26T20:19:02.700Z,7.95
2019-01-26T20:22:07.485Z,7.74
2019-01-26T20:25:10.018Z,7.61
2019-01-26T20:28:12.086Z,7.67
2019-01-26T20:31:14.515Z,7.70
2019-01-26T20:34:19.280Z,7.70
2019-01-26T20:37:31.745Z,7.82
2019-01-26T20:40:33.841Z,7.66
2019-01-26T20:43:39.423Z,7.73
2019-01-26T20:46:46.042Z,7.75
2019-01-26T20:49:49.920Z,7.60
2019-01-26T20:52:53.679Z,7.70
2019-01-26T20:55:56.045Z,7.54
2019-01-26T20:58:58.108Z,7.44
2019-01-26T21:02:01.964Z,7.58
2019-01-26T21:05:07.506Z,7.49
2019-01-26T21:08:09.549Z,7.47
2019-01-26T21:11:12.957Z,7.43
2019-01-26T21:14:15.092Z,7.75
2019-01-26T21:17:18.549Z,7.82
2019-01-26T21:20:24.657Z,7.89
2019-01-26T21:23:26.835Z,7.84
2019-01-26T21:26:31.799Z,7.77
2019-01-26T21:29:33.822Z,7.93
2019-01-26T21:32:35.850Z,7.80
2019-01-26T21:35:37.993Z,7.66
2019-01-26T21:38:40.001Z,7.51
2019-01-26T21:41:42.094Z,7.67
2019-01-26T21:44:45.719Z,7.79
2019-01-26T21:47:47.880Z,7.50
2019-01-26T21:50:49.906Z,7.57
2019-01-26T21:53:52.283Z,7.68
2019-01-26T21:56:54.497Z,7.67
2019-01-26T21:59:56.886Z,7.61
2019-01-26T22:02:59.350Z,7.67
2019-01-26T22:06:02.891Z,7.75
2019-01-26T22:09:08.004Z,7.77
2019-01-26T22:12:10.094Z,7.61
2019-01-26T22:15:15.462Z,7.69
2019-01-26T22:18:17.547Z,7.75
2019-01-26T22:21:19.692Z,7.67
2019-01-26T22:24:21.976Z,7.58
2019-01-26T22:27:24.056Z,7.67
2019-01-26T22:30:31.990Z,7.85
2019-01-26T22:33:34.010Z,7.67
2019-01-26T22:36:36.055Z,7.47
2019-01-26T22:39:38.364Z,7.52
2019-01-26T22:42:40.457Z,7.24
2019-01-26T22:45:42.886Z,7.33
2019-01-26T22:48:47.523Z,7.32
2019-01-26T22:51:53.461Z,7.31
2019-01-26T22:54:56.689Z,7.23
2019-01-26T22:57:58.711Z,7.18
2019-01-26T23:01:20.361Z,7.28
2019-01-26T23:04:52.844Z,7.20
2019-01-26T23:08:02.713Z,7.11
2019-01-26T23:11:28.651Z,7.12
2019-01-26T23:15:07.572Z,7.28
2019-01-26T23:19:03.481Z,7.33
2019-01-26T23:22:35.146Z,7.36
2019-01-26T23:26:03.189Z,7.31
2019-01-26T23:29:54.751Z,7.46
2019-01-26T23:32:57.848Z,7.43
2019-01-26T23:36:01.250Z,7.50
2019-01-26T23:39:07.380Z,7.26
2019-01-26T23:42:09.680Z,7.23
2019-01-26T23:45:13.391Z,7.16
2019-01-26T23:48:17.509Z,7.14
2019-01-26T23:51:22.436Z,7.42
2019-01-26T23:54:26.583Z,7.49
2019-01-26T23:57:28.590Z,7.33
